Airfield :
LOGIN :

Register | Disclaimer

   EN    FR    IT 

 










Legend :    VFR   Marginal VFR   IFR   Intensive IFR   Very Intensive IFR
Visi :
Ceiling :
>= 8 km
>= 3000ft
5 to 8 km
1000 to 3000 ft
1500m to 5 km
500 to 1000 ft
800 to 1500m
200 to 500 ft
< 800m
< 200 ft
Symbols :   Thunderstorms  Fog  Heavy snow  Heavy precipitations  Wind > 20 kt
SIGMETs :     Misc.  Thunderstorms  Icing  Turbulence  Mountain Waves  Volcanic Ashes






- Airport Elevation : 699 ft
- IATA code : PAD


EDLP - Paderborn Lippstadt

CURRENT METAR :
  • 291320Z 10009KT 060V130 CAVOK 25/12 Q1014

EXPIRED METARs :
  • 291250Z 07009KT 030V110 CAVOK 25/12 Q1014
  • 291220Z VRB06KT 9999 FEW046 25/12 Q1015 ATIS
  • 291150Z 09009KT 060V130 CAVOK 24/12 Q1015 ATIS
  • 291120Z 09005KT 050V140 CAVOK 24/13 Q1015 ATIS
  • 291050Z 13006KT 090V170 CAVOK 21/12 Q1015 ATIS

TAF TAF EDLP
Valid from the 29 at 12:00 until the 30 at 12:00 UTC


291100Z 2912/3012 11005KT CAVOK
PROB30
TEMPO 3003/3006 4500 BR



MET'MAP, your aeronautical weather chart ! - Copyright ORBIFLY December 2007 - Disclaimer

ORBIFLY MET'MAP TEAM :

Programming & Development : Alexandra Zaïnal
Original concept : Baudouin d'Aumeries
Technical & hardware support : Manuel Goepfert
Assistance : Marc-Olivier Méhu




SOURCES & CREDITS :

   NOAA